createdAt,value
2022-11-15T00:00:53.349Z,4.00
2022-11-15T00:04:55.032Z,3.38
2022-11-15T00:08:59.458Z,3.92
2022-11-15T00:13:01.075Z,3.35
2022-11-15T00:17:03.808Z,3.42
2022-11-15T00:21:07.861Z,3.05
2022-11-15T00:25:09.481Z,3.30
2022-11-15T00:29:11.007Z,3.35
2022-11-15T00:33:13.363Z,2.72
2022-11-15T00:37:14.803Z,2.47
2022-11-15T00:41:16.278Z,2.30
2022-11-15T00:45:17.752Z,2.38
2022-11-15T00:49:19.164Z,2.60
2022-11-15T00:53:21.885Z,2.90
2022-11-15T00:57:23.516Z,2.65
2022-11-15T01:01:25.734Z,2.70
2022-11-15T01:05:27.533Z,3.17
2022-11-15T01:09:29.036Z,2.63
2022-11-15T01:13:33.072Z,2.35
2022-11-15T01:17:34.785Z,2.03
2022-11-15T01:21:36.228Z,2.63
2022-11-15T01:25:38.205Z,2.58
2022-11-15T01:29:41.239Z,2.50
2022-11-15T01:33:43.045Z,2.47
2022-11-15T01:37:44.535Z,1.90
2022-11-15T01:41:46.099Z,2.58
2022-11-15T01:45:53.274Z,2.00
2022-11-15T01:50:12.881Z,2.10
2022-11-15T01:56:52.566Z,1.83
2022-11-15T02:00:54.121Z,3.20
2022-11-15T02:04:55.656Z,2.88
2022-11-15T02:08:57.516Z,2.83
2022-11-15T02:13:00.649Z,2.85
2022-11-15T02:17:13.588Z,2.75
2022-11-15T02:21:38.187Z,3.97
2022-11-15T02:26:18.238Z,3.75
2022-11-15T02:30:24.361Z,3.15
2022-11-15T02:34:25.910Z,2.83
2022-11-15T02:38:33.127Z,3.83
2022-11-15T02:42:55.529Z,2.85
2022-11-15T02:47:14.772Z,2.80
2022-11-15T02:51:17.218Z,3.63
2022-11-15T02:55:33.820Z,2.70
2022-11-15T02:59:46.543Z,2.60
2022-11-15T03:04:02.433Z,3.45
2022-11-15T03:08:07.009Z,2.40
2022-11-15T03:12:18.685Z,2.92
2022-11-15T03:16:43.855Z,2.95
2022-11-15T03:20:45.936Z,2.50
2022-11-15T03:24:49.302Z,3.13
2022-11-15T03:28:54.977Z,2.78
2022-11-15T03:32:58.711Z,2.58
2022-11-15T03:37:00.698Z,2.55
2022-11-15T03:41:05.779Z,2.60
2022-11-15T03:45:24.140Z,2.60
2022-11-15T03:49:29.155Z,2.22
2022-11-15T03:53:32.382Z,2.60
2022-11-15T03:57:34.084Z,2.58
2022-11-15T04:01:35.816Z,2.80
2022-11-15T04:05:37.796Z,2.15
2022-11-15T04:09:59.393Z,2.67
2022-11-15T04:14:00.808Z,2.67
2022-11-15T04:18:03.746Z,2.60
2022-11-15T04:22:23.851Z,2.60
2022-11-15T04:26:25.460Z,2.25
2022-11-15T04:30:27.318Z,2.80
2022-11-15T04:34:29.005Z,2.70
2022-11-15T04:38:30.728Z,2.40
2022-11-15T04:42:32.223Z,2.20
2022-11-15T04:46:34.175Z,2.85
2022-11-15T04:50:35.662Z,2.28
2022-11-15T04:54:37.277Z,2.45
2022-11-15T04:58:38.849Z,2.92
2022-11-15T05:02:59.317Z,2.25
2022-11-15T05:07:01.430Z,2.33
2022-11-15T05:11:03.444Z,2.72
2022-11-15T05:15:05.625Z,3.03
2022-11-15T05:19:07.566Z,3.28
2022-11-15T05:23:09.007Z,2.78
2022-11-15T05:27:10.759Z,2.38
2022-11-15T05:31:17.060Z,2.78
2022-11-15T05:35:26.978Z,2.50
2022-11-15T05:39:28.497Z,3.00
2022-11-15T05:43:32.797Z,3.08
2022-11-15T05:47:35.024Z,2.63
2022-11-15T05:51:37.157Z,2.88
2022-11-15T05:55:40.369Z,3.42
2022-11-15T05:59:42.894Z,3.22
2022-11-15T06:03:44.850Z,4.15
2022-11-15T06:07:46.380Z,3.45
2022-11-15T06:11:48.956Z,3.75
2022-11-15T06:15:50.596Z,3.83
2022-11-15T06:19:52.109Z,4.10
2022-11-15T06:23:55.302Z,3.78
2022-11-15T06:27:57.980Z,3.70
2022-11-15T06:31:59.604Z,3.47
2022-11-15T06:36:17.248Z,4.40
2022-11-15T06:40:19.342Z,4.15
2022-11-15T06:44:20.789Z,3.95
2022-11-15T06:48:22.233Z,4.10
2022-11-15T06:52:23.793Z,4.25
2022-11-15T06:56:25.192Z,4.72
2022-11-15T07:00:26.773Z,3.78
2022-11-15T07:04:28.395Z,3.53
2022-11-15T07:08:30.536Z,4.18
2022-11-15T07:12:31.958Z,4.38
2022-11-15T07:16:33.586Z,3.75
2022-11-15T07:20:35.096Z,3.83
2022-11-15T07:24:37.841Z,5.38
2022-11-15T07:28:39.571Z,5.18
2022-11-15T07:32:41.317Z,4.70
2022-11-15T07:36:43.313Z,5.47
2022-11-15T07:40:44.904Z,5.05
2022-11-15T07:44:46.709Z,5.47
2022-11-15T07:48:48.154Z,4.78
2022-11-15T07:52:55.180Z,5.55
2022-11-15T07:56:57.863Z,4.73
2022-11-15T08:01:07.146Z,5.15
2022-11-15T08:05:08.837Z,5.05
2022-11-15T08:09:10.304Z,5.53
2022-11-15T08:13:13.557Z,4.50
2022-11-15T08:17:15.400Z,4.20
2022-11-15T08:21:19.983Z,4.10
2022-11-15T08:25:21.774Z,3.45
2022-11-15T08:29:23.443Z,3.35
2022-11-15T08:33:25.632Z,3.75
2022-11-15T08:37:27.031Z,4.97
2022-11-15T08:41:34.758Z,2.95
2022-11-15T08:49:38.041Z,2.45
2022-11-15T08:53:40.090Z,2.33
2022-11-15T08:57:41.745Z,2.40
2022-11-15T09:01:43.277Z,2.30
2022-11-15T09:05:44.761Z,2.15
2022-11-15T09:09:46.458Z,2.13
2022-11-15T09:13:48.158Z,1.75
2022-11-15T09:17:49.601Z,2.17
2022-11-15T09:21:51.345Z,1.85
2022-11-15T09:25:53.341Z,1.98
2022-11-15T09:29:55.266Z,2.10
2022-11-15T09:33:57.019Z,1.80
2022-11-15T09:37:58.886Z,1.52
2022-11-15T09:42:10.482Z,2.15
2022-11-15T09:46:28.636Z,2.13
2022-11-15T09:50:35.534Z,2.25
2022-11-15T09:54:53.456Z,1.30
2022-11-15T09:59:00.508Z,1.23
2022-11-15T10:03:01.992Z,1.75
2022-11-15T10:07:24.222Z,1.95
2022-11-15T10:11:37.884Z,1.67
2022-11-15T10:15:40.325Z,1.60
2022-11-15T10:20:21.588Z,2.22
2022-11-15T10:24:30.993Z,1.60
2022-11-15T10:28:32.823Z,1.70
2022-11-15T10:32:35.499Z,1.65
2022-11-15T10:36:37.035Z,2.03
2022-11-15T10:40:40.459Z,1.95
2022-11-15T10:44:46.034Z,1.40
2022-11-15T10:48:47.734Z,2.63
2022-11-15T10:52:49.233Z,1.40
2022-11-15T10:56:52.985Z,1.40
2022-11-15T11:00:54.948Z,2.00
2022-11-15T11:04:56.986Z,1.27
2022-11-15T11:08:59.510Z,2.00
2022-11-15T11:13:32.965Z,1.98
2022-11-15T11:18:01.523Z,1.40
2022-11-15T11:22:28.832Z,1.50
2022-11-15T11:26:42.062Z,2.05
2022-11-15T11:30:51.664Z,1.77
2022-11-15T11:35:24.349Z,1.50
2022-11-15T11:39:57.105Z,1.95
2022-11-15T11:44:11.640Z,1.95
2022-11-15T11:48:36.688Z,1.88
2022-11-15T11:52:41.189Z,1.67
2022-11-15T11:56:44.970Z,2.13
2022-11-15T12:00:56.694Z,1.67
2022-11-15T12:05:14.508Z,1.50
2022-11-15T12:09:26.946Z,2.05
2022-11-15T12:13:30.742Z,1.58
2022-11-15T12:17:33.328Z,1.45
2022-11-15T12:21:56.632Z,1.55
2022-11-15T12:26:19.914Z,1.50
2022-11-15T12:30:23.088Z,1.45
2022-11-15T12:34:44.907Z,1.30
2022-11-15T12:39:03.885Z,1.45
2022-11-15T12:43:09.294Z,1.60
2022-11-15T12:47:10.889Z,1.52
2022-11-15T12:51:12.410Z,1.63
2022-11-15T12:55:32.385Z,1.63
2022-11-15T12:59:59.930Z,1.20
2022-11-15T13:04:25.961Z,1.77
2022-11-15T13:08:40.906Z,1.70
2022-11-15T13:12:45.690Z,1.20
2022-11-15T13:16:48.016Z,1.58
2022-11-15T13:20:49.457Z,1.17
2022-11-15T13:24:50.930Z,1.23
2022-11-15T13:28:53.472Z,0.90
2022-11-15T13:32:55.248Z,1.70
2022-11-15T13:36:57.509Z,1.25
2022-11-15T13:41:00.704Z,0.98
2022-11-15T13:45:05.057Z,1.80
2022-11-15T13:49:12.594Z,2.83
2022-11-15T13:53:14.110Z,3.83
2022-11-15T13:57:20.101Z,4.55
2022-11-15T14:01:23.259Z,5.03
2022-11-15T14:05:25.876Z,5.40
2022-11-15T14:09:41.429Z,5.47
2022-11-15T14:13:43.534Z,4.57
2022-11-15T14:17:49.813Z,4.68
2022-11-15T14:22:11.573Z,4.33
2022-11-15T14:26:28.629Z,4.68
2022-11-15T14:30:30.509Z,4.95
2022-11-15T14:34:33.540Z,6.35
2022-11-15T14:38:36.236Z,5.25
2022-11-15T14:42:38.093Z,5.45
2022-11-15T14:46:39.533Z,5.63
2022-11-15T14:50:41.562Z,5.43
2022-11-15T14:54:43.042Z,6.07
2022-11-15T14:58:44.522Z,5.43
2022-11-15T15:02:47.584Z,5.70
2022-11-15T15:06:49.132Z,5.53
2022-11-15T15:10:50.756Z,5.80
2022-11-15T15:14:52.348Z,6.22
2022-11-15T15:18:54.309Z,4.90
2022-11-15T15:22:56.176Z,6.00
2022-11-15T15:26:57.732Z,6.03
2022-11-15T15:30:59.188Z,6.05
2022-11-15T15:35:01.064Z,5.50
2022-11-15T15:39:02.603Z,5.63
2022-11-15T15:43:04.180Z,5.25
2022-11-15T15:47:12.635Z,6.10
2022-11-15T15:51:19.917Z,6.18
2022-11-15T15:55:22.197Z,5.97
2022-11-15T15:59:23.684Z,6.97
2022-11-15T16:03:25.239Z,8.40
2022-11-15T16:07:26.824Z,8.15
2022-11-15T16:11:28.349Z,9.23
2022-11-15T16:15:31.812Z,9.38
2022-11-15T16:19:33.267Z,7.90
2022-11-15T16:23:34.786Z,6.97
2022-11-15T16:27:38.388Z,7.43
2022-11-15T16:31:39.893Z,6.75
2022-11-15T16:35:41.451Z,6.93
2022-11-15T16:39:43.058Z,7.70
2022-11-15T16:43:47.877Z,7.97
2022-11-15T16:47:49.921Z,8.07
2022-11-15T16:51:51.922Z,7.75
2022-11-15T16:55:54.355Z,7.95
2022-11-15T16:59:55.889Z,7.85
2022-11-15T17:03:57.818Z,7.88
2022-11-15T17:07:59.551Z,7.82
2022-11-15T17:12:00.986Z,7.18
2022-11-15T17:16:10.991Z,7.57
2022-11-15T17:20:18.094Z,8.90
2022-11-15T17:24:21.384Z,11.43
2022-11-15T17:28:22.979Z,12.40
2022-11-15T17:32:24.460Z,14.38
2022-11-15T17:36:26.093Z,14.13
2022-11-15T17:40:28.059Z,12.80
2022-11-15T17:44:29.676Z,14.02
2022-11-15T17:48:31.716Z,12.13
2022-11-15T17:52:33.445Z,11.93
2022-11-15T17:56:39.123Z,8.90
2022-11-15T18:00:41.011Z,9.35
2022-11-15T18:04:42.600Z,9.38
2022-11-15T18:08:45.396Z,10.57
2022-11-15T18:12:46.807Z,9.38
2022-11-15T18:16:48.497Z,10.80
2022-11-15T18:20:50.044Z,11.65
2022-11-15T18:24:51.561Z,14.35
2022-11-15T18:28:58.755Z,14.13
2022-11-15T18:33:00.240Z,13.77
2022-11-15T18:37:02.970Z,8.98
2022-11-15T18:41:08.822Z,6.05
2022-11-15T18:45:10.805Z,4.72
2022-11-15T18:49:13.938Z,3.92
2022-11-15T18:53:16.274Z,4.55
2022-11-15T18:57:17.851Z,4.80
2022-11-15T19:01:40.736Z,4.55
2022-11-15T19:05:42.209Z,4.57
2022-11-15T19:09:43.671Z,5.38
2022-11-15T19:13:46.417Z,5.30
2022-11-15T19:17:47.896Z,4.85
2022-11-15T19:21:49.793Z,5.13
2022-11-15T19:26:01.743Z,5.63
2022-11-15T19:30:03.441Z,4.68
2022-11-15T19:34:05.765Z,4.38
2022-11-15T19:38:07.622Z,4.57
2022-11-15T19:42:09.000Z,3.95
2022-11-15T19:46:12.394Z,4.13
2022-11-15T19:50:13.992Z,4.22
2022-11-15T19:54:17.194Z,5.30
2022-11-15T19:58:18.996Z,4.57
2022-11-15T20:02:20.613Z,3.90
2022-11-15T20:06:42.275Z,3.35
2022-11-15T20:10:46.184Z,3.88
2022-11-15T20:14:48.136Z,3.78
2022-11-15T20:18:50.626Z,4.40
2022-11-15T20:22:53.350Z,4.35
2022-11-15T20:26:54.820Z,6.88
2022-11-15T20:30:59.895Z,6.70
2022-11-15T20:35:01.404Z,6.72
2022-11-15T20:39:03.121Z,6.38
2022-11-15T20:43:05.276Z,5.85
2022-11-15T20:47:07.310Z,5.82
2022-11-15T20:51:14.514Z,5.80
2022-11-15T20:55:17.056Z,4.78
2022-11-15T20:59:18.539Z,4.75
2022-11-15T21:03:19.950Z,4.90
2022-11-15T21:07:21.619Z,4.90
2022-11-15T21:11:41.870Z,5.47
2022-11-15T21:15:43.472Z,4.70
2022-11-15T21:19:45.231Z,5.15
2022-11-15T21:23:46.662Z,3.95
2022-11-15T21:27:48.356Z,4.65
2022-11-15T21:31:51.272Z,4.32
2022-11-15T21:35:55.958Z,4.03
2022-11-15T21:39:57.561Z,4.75
2022-11-15T21:44:02.956Z,5.07
2022-11-15T21:48:06.279Z,4.97
2022-11-15T21:52:07.697Z,4.40
2022-11-15T21:56:09.829Z,5.15
2022-11-15T22:00:30.780Z,4.97
2022-11-15T22:04:32.378Z,4.47
2022-11-15T22:08:34.440Z,3.60
2022-11-15T22:12:36.680Z,3.53
2022-11-15T22:16:38.314Z,3.45
2022-11-15T22:20:44.844Z,4.05
2022-11-15T22:24:46.837Z,3.63
2022-11-15T22:28:48.520Z,3.90
2022-11-15T22:32:50.389Z,4.55
2022-11-15T22:37:19.008Z,4.25
2022-11-15T22:41:13.481Z,3.88
2022-11-15T22:45:14.969Z,3.22
2022-11-15T22:49:16.432Z,4.22
2022-11-15T22:53:18.949Z,3.90
2022-11-15T22:57:20.712Z,3.50
2022-11-15T23:01:22.458Z,4.07
2022-11-15T23:05:23.945Z,3.90
2022-11-15T23:09:25.598Z,3.67
2022-11-15T23:13:29.666Z,4.13
2022-11-15T23:17:32.522Z,3.90
2022-11-15T23:21:55.509Z,3.72
2022-11-15T23:25:58.946Z,4.53
2022-11-15T23:30:19.754Z,3.03
2022-11-15T23:34:22.549Z,3.60
2022-11-15T23:38:24.317Z,3.53
2022-11-15T23:42:25.828Z,4.32
2022-11-15T23:46:27.543Z,4.25
2022-11-15T23:50:29.119Z,4.05
2022-11-15T23:54:31.117Z,3.70
2022-11-15T23:58:33.567Z,4.13
